Time;durP1;ratioP1;P1;durP2;ratioP2;P2;SDS_P1;SDS_P2;PMS_P1;PMS_P2;Temp;Humidity;BMP_temperature;BMP_pressure;BME280_temperature;BME280_humidity;BME280_pressure;Samples;Min_cycle;Max_cycle;Signal;HPM_P1;HPM_P2
2021/12/22 00:02:16;;;;;;;12.68;7.72;;;;;;;-3.13;72.15;99786.72;2621751;54;20043;-68
2021/12/22 00:04:50;;;;;;;12.50;8.00;;;;;;;-3.11;72.50;99790.88;2623397;39;20421;-68
2021/12/22 00:07:19;;;;;;;13.55;8.20;;;;;;;-3.11;72.24;99783.13;2622494;47;20031;-68
2021/12/22 00:09:49;;;;;;;13.77;8.38;;;;;;;-3.08;72.27;99788.16;2622407;54;20107;-68
2021/12/22 00:12:19;;;;;;;13.02;8.38;;;;;;;-3.05;72.39;99788.00;2622592;54;20035;-69
2021/12/22 00:14:48;;;;;;;13.50;8.50;;;;;;;-3.05;72.54;99779.41;2621158;54;20030;-67
2021/12/22 00:17:18;;;;;;;13.38;7.63;;;;;;;-3.10;72.04;99771.88;2621539;54;20022;-68
2021/12/22 00:19:50;;;;;;;20.67;9.15;;;;;;;-3.12;72.60;99768.53;2622510;54;20058;-67
2021/12/22 00:22:20;;;;;;;12.07;7.57;;;;;;;-3.10;72.71;99764.13;2622442;54;20030;-68
2021/12/22 00:24:49;;;;;;;15.68;8.00;;;;;;;-3.05;72.62;99761.28;2621613;54;20039;-69
2021/12/22 00:27:19;;;;;;;13.55;8.63;;;;;;;-3.04;72.18;99761.19;2622357;51;20042;-70
2021/12/22 00:29:51;;;;;;;13.23;8.48;;;;;;;-3.07;72.48;99756.19;2622857;54;20831;-68
2021/12/22 00:32:22;;;;;;;15.52;8.70;;;;;;;-3.14;72.41;99754.88;2622662;54;20034;-68
2021/12/22 00:34:56;;;;;;;16.73;8.15;;;;;;;-3.17;72.51;99754.19;2621052;54;20026;-68
2021/12/22 00:37:32;;;;;;;14.88;8.35;;;;;;;-3.24;72.25;99753.66;2625131;54;20054;-69
2021/12/22 00:40:02;;;;;;;15.95;8.30;;;;;;;-3.21;72.66;99757.84;2626353;54;20050;-69
2021/12/22 00:42:32;;;;;;;13.38;7.78;;;;;;;-3.27;72.87;99764.16;2625402;54;20030;-68
2021/12/22 00:45:02;;;;;;;14.52;8.57;;;;;;;-3.32;72.68;99759.25;2625472;54;20041;-68
2021/12/22 00:47:33;;;;;;;17.52;10.25;;;;;;;-3.29;72.91;99759.09;2625259;54;20070;-69
2021/12/22 00:50:08;;;;;;;22.23;11.25;;;;;;;-3.26;72.94;99758.09;2625763;54;20549;-69
2021/12/22 00:52:38;;;;;;;16.20;9.45;;;;;;;-3.26;72.81;99758.94;2625331;54;20035;-69
2021/12/22 00:55:08;;;;;;;14.32;8.13;;;;;;;-3.19;72.71;99761.19;2625692;54;20583;-69
2021/12/22 00:57:39;;;;;;;12.02;8.50;;;;;;;-3.18;72.81;99766.28;2624713;54;20122;-69
2021/12/22 01:00:10;;;;;;;16.52;8.70;;;;;;;-3.20;73.00;99770.69;2624938;47;20037;-69
2021/12/22 01:02:40;;;;;;;15.90;8.75;;;;;;;-3.27;72.84;99766.75;2623958;54;20034;-68
2021/12/22 01:05:15;;;;;;;16.75;8.70;;;;;;;-3.31;73.09;99766.13;2623698;54;20114;-68
2021/12/22 01:07:46;;;;;;;15.13;8.88;;;;;;;-3.37;73.14;99765.59;2624207;54;20592;-68
2021/12/22 01:10:20;;;;;;;;;;;;;;;-3.23;73.43;99765.69;2622151;54;20035;-68
2021/12/22 01:12:51;;;;;;;13.60;8.10;;;;;;;-3.15;73.15;99760.09;2620676;54;19973;-69
2021/12/22 01:15:21;;;;;;;19.92;10.00;;;;;;;-3.05;73.03;99764.72;2621163;54;20039;-68
2021/12/22 01:17:59;;;;;;;21.33;10.70;;;;;;;-3.04;72.50;99768.94;2620516;54;20031;-67
2021/12/22 01:20:38;;;;;;;13.73;8.90;;;;;;;-3.12;72.50;99780.63;2619955;54;20030;-68
2021/12/22 01:23:08;;;;;;;16.15;8.85;;;;;;;-3.26;72.55;99789.13;2619583;54;20046;-68
2021/12/22 01:25:43;;;;;;;16.20;10.32;;;;;;;-3.39;72.31;99794.13;2619406;54;20049;-68
2021/12/22 01:28:14;;;;;;;20.50;10.70;;;;;;;-3.49;72.53;99798.91;2618909;47;20043;-69
2021/12/22 01:30:47;;;;;;;15.93;9.48;;;;;;;-3.55;72.98;99795.84;2619523;54;20034;-68
2021/12/22 01:33:18;;;;;;;14.53;9.77;;;;;;;-3.50;72.96;99801.59;2620228;39;20439;-68
2021/12/22 01:35:51;;;;;;;13.30;8.63;;;;;;;-3.50;72.59;99796.41;2619676;47;20019;-68
2021/12/22 01:38:20;;;;;;;11.60;8.05;;;;;;;-3.43;72.86;99800.38;2619650;54;20023;-67
2021/12/22 01:40:51;;;;;;;12.65;8.35;;;;;;;-3.31;72.97;99802.31;2622124;54;20042;-68
2021/12/22 01:43:20;;;;;;;15.38;8.85;;;;;;;-3.24;72.81;99802.81;2621070;54;20038;-67
2021/12/22 01:46:10;;;;;;;14.68;9.07;;;;;;;-3.21;72.77;99804.41;2619966;54;20034;-68
2021/12/22 01:51:32;;;;;;;17.20;9.98;;;;;;;-3.35;71.82;99805.13;2621723;54;20035;-68
2021/12/22 01:54:06;;;;;;;16.13;10.20;;;;;;;-3.55;71.84;99812.16;2621668;47;20022;-68
2021/12/22 01:56:37;;;;;;;15.15;9.73;;;;;;;-3.68;71.98;99810.28;2622105;54;20031;-70
2021/12/22 01:59:10;;;;;;;14.35;8.63;;;;;;;-3.72;72.50;99814.75;2620864;54;20035;-68
2021/12/22 02:01:41;;;;;;;14.43;9.05;;;;;;;-3.75;72.55;99818.34;2621528;54;20061;-68
2021/12/22 02:04:13;;;;;;;15.00;9.02;;;;;;;-3.70;72.41;99819.88;2621669;54;20038;-69
2021/12/22 02:06:48;;;;;;;16.25;8.27;;;;;;;-3.75;72.63;99812.34;2623355;54;20027;-68
2021/12/22 02:09:35;;;;;;;13.07;8.38;;;;;;;-3.80;72.45;99812.59;2622787;54;20029;-68
2021/12/22 02:12:06;;;;;;;16.27;8.30;;;;;;;-3.72;72.16;99813.94;2622246;46;20042;-69
2021/12/22 02:14:37;;;;;;;12.27;7.55;;;;;;;-3.71;72.42;99825.97;2622663;47;20042;-69
2021/12/22 02:17:09;;;;;;;11.65;8.02;;;;;;;-3.72;72.15;99813.94;2623007;54;20031;-68
2021/12/22 02:19:42;;;;;;;13.00;7.72;;;;;;;-3.71;72.10;99813.88;2622903;54;20034;-68
2021/12/22 02:22:15;;;;;;;14.33;7.60;;;;;;;-3.70;72.11;99812.94;2623152;54;20057;-69
2021/12/22 02:24:50;;;;;;;13.75;8.23;;;;;;;-3.64;72.21;99811.78;2621293;54;20041;-68
2021/12/22 02:27:27;;;;;;;;;;;;;;;-3.70;71.45;99809.53;2620939;54;20038;-68
2021/12/22 02:30:00;;;;;;;23.80;8.55;;;;;;;-3.79;71.79;99803.91;2621851;39;20547;-68
2021/12/22 02:33:02;;;;;;;15.27;8.20;;;;;;;-3.73;72.01;99802.75;2621737;54;20042;-68
2021/12/22 02:35:40;;;;;;;12.75;7.65;;;;;;;-3.78;71.98;99794.41;2620635;54;20042;-68
2021/12/22 02:38:16;;;;;;;12.57;7.35;;;;;;;-3.83;72.02;99792.06;2621100;54;20034;-67
2021/12/22 02:40:52;;;;;;;15.70;8.80;;;;;;;-3.84;71.89;99793.00;2619722;47;20026;-68
2021/12/22 02:43:24;;;;;;;15.25;8.75;;;;;;;-3.81;72.14;99791.97;2623268;54;20022;-67
2021/12/22 02:45:55;;;;;;;12.07;8.07;;;;;;;-3.86;71.77;99797.38;2623648;54;20049;-69
2021/12/22 02:48:25;;;;;;;17.02;8.75;;;;;;;-3.84;71.91;99798.16;2623485;39;20437;-67
2021/12/22 02:50:59;;;;;;;17.33;8.43;;;;;;;-3.82;71.91;99793.72;2623254;54;20091;-68
2021/12/22 02:53:38;;;;;;;14.77;7.70;;;;;;;-3.87;71.66;99787.13;2622650;47;20026;-68
2021/12/22 02:56:17;;;;;;;12.75;7.10;;;;;;;-3.98;71.42;99787.66;2623750;54;20046;-67
2021/12/22 02:58:58;;;;;;;13.95;8.13;;;;;;;-4.09;71.98;99782.19;2622849;47;20027;-68
2021/12/22 03:01:53;;;;;;;12.13;7.88;;;;;;;-4.10;71.94;99783.09;2623698;54;20026;-68
2021/12/22 03:04:25;;;;;;;14.15;7.60;;;;;;;-4.13;72.16;99776.34;2623921;54;20038;-68
2021/12/22 03:07:03;;;;;;;12.68;7.53;;;;;;;-4.14;72.14;99771.25;2624114;54;20022;-68
2021/12/22 03:09:37;;;;;;;13.30;8.50;;;;;;;-4.14;71.88;99773.84;2624522;54;20034;-68
2021/12/22 03:12:09;;;;;;;16.83;7.80;;;;;;;-4.16;72.27;99786.00;2623544;54;20057;-68
2021/12/22 03:14:39;;;;;;;13.30;7.57;;;;;;;-4.15;72.41;99778.16;2624069;54;20044;-68
2021/12/22 03:17:09;;;;;;;12.93;8.10;;;;;;;-4.13;72.24;99766.00;2625003;54;20030;-69
2021/12/22 03:19:39;;;;;;;15.32;9.15;;;;;;;-4.13;72.50;99767.75;2624248;47;20031;-68
2021/12/22 03:22:12;;;;;;;15.02;8.63;;;;;;;-4.07;72.61;99767.47;2624303;54;20445;-68
2021/12/22 03:24:44;;;;;;;13.02;8.80;;;;;;;-4.09;72.39;99764.09;2624543;54;20026;-70
2021/12/22 03:27:14;;;;;;;16.25;9.07;;;;;;;-4.12;72.10;99772.88;2623192;54;20027;-68
2021/12/22 03:29:44;;;;;;;17.42;8.35;;;;;;;-4.12;72.24;99770.28;2624425;39;20442;-67
2021/12/22 03:32:14;;;;;;;15.07;8.95;;;;;;;-4.08;72.34;99776.13;2622699;54;20062;-67
2021/12/22 03:34:44;;;;;;;16.67;8.30;;;;;;;-4.08;72.47;99769.22;2623705;54;20126;-67
2021/12/22 03:37:16;;;;;;;16.50;8.60;;;;;;;-4.05;72.41;99769.03;2625123;54;20039;-68
2021/12/22 03:39:46;;;;;;;16.75;8.63;;;;;;;-4.01;72.66;99769.72;2625551;54;20050;-67
2021/12/22 03:42:15;;;;;;;14.15;8.63;;;;;;;-3.99;72.59;99778.25;2624184;54;20062;-69
2021/12/22 03:44:45;;;;;;;15.07;9.20;;;;;;;-4.06;72.29;99764.78;2621186;47;20039;-67
2021/12/22 03:47:15;;;;;;;12.73;8.60;;;;;;;-4.06;72.01;99761.38;2619211;54;20085;-69
2021/12/22 03:49:44;;;;;;;17.80;10.32;;;;;;;-4.09;71.88;99764.94;2623563;54;20030;-66
2021/12/22 03:52:17;;;;;;;18.13;9.57;;;;;;;-4.00;72.35;99768.84;2623716;39;20462;-67
2021/12/22 03:54:46;;;;;;;19.67;8.52;;;;;;;-3.96;72.49;99767.78;2622994;54;20038;-67
2021/12/22 03:57:16;;;;;;;16.60;8.70;;;;;;;-3.91;72.11;99768.38;2619337;47;20065;-67
2021/12/22 03:59:45;;;;;;;18.70;9.55;;;;;;;-3.95;72.39;99766.03;2623107;54;20030;-67
2021/12/22 04:02:19;;;;;;;12.77;8.00;;;;;;;-3.95;71.94;99766.03;2623024;54;20027;-67
2021/12/22 04:04:50;;;;;;;15.90;8.57;;;;;;;-4.03;71.72;99764.66;2623279;54;20033;-68
2021/12/22 04:07:22;;;;;;;14.90;8.38;;;;;;;-4.05;71.75;99766.47;2623700;54;20316;-68
2021/12/22 04:09:53;;;;;;;15.68;8.10;;;;;;;-4.09;72.08;99772.69;2624231;54;20026;-67
2021/12/22 04:12:22;;;;;;;14.05;8.77;;;;;;;-4.16;71.54;99773.09;2625146;54;20062;-68
2021/12/22 04:14:52;;;;;;;13.43;8.55;;;;;;;-4.14;72.40;99769.50;2624561;47;20051;-67
2021/12/22 04:17:22;;;;;;;16.48;9.40;;;;;;;-4.21;71.94;99777.63;2625196;54;20050;-68
2021/12/22 04:19:51;;;;;;;16.30;9.07;;;;;;;-4.25;71.96;99775.22;2625011;54;20038;-67
2021/12/22 04:22:23;;;;;;;15.15;8.77;;;;;;;-4.20;72.55;99775.00;2623230;54;20561;-67
2021/12/22 04:24:53;;;;;;;14.77;8.65;;;;;;;-4.16;71.86;99767.94;2623834;54;20038;-68
2021/12/22 04:27:22;;;;;;;15.02;8.45;;;;;;;-4.14;72.23;99766.91;2622516;54;20527;-69
2021/12/22 04:29:52;;;;;;;11.63;7.88;;;;;;;-4.09;72.33;99769.28;2624326;54;20031;-69
2021/12/22 04:32:22;;;;;;;14.48;8.43;;;;;;;-4.03;72.04;99766.41;2625724;54;20043;-68
2021/12/22 04:34:51;;;;;;;13.13;8.70;;;;;;;-4.07;71.80;99763.13;2625550;54;20030;-69
2021/12/22 04:37:24;;;;;;;16.23;8.82;;;;;;;-4.10;71.92;99759.88;2624214;54;20057;-69
2021/12/22 04:39:53;;;;;;;14.52;8.75;;;;;;;-4.11;72.38;99756.44;2624085;54;20038;-68
2021/12/22 04:42:23;;;;;;;17.58;8.60;;;;;;;-4.14;71.84;99759.19;2622574;54;20784;-68
2021/12/22 04:44:56;;;;;;;14.00;9.68;;;;;;;-4.14;72.35;99755.75;2623390;54;20562;-68
2021/12/22 04:47:25;;;;;;;14.02;9.02;;;;;;;-4.17;72.18;99761.06;2623114;54;20030;-67
2021/12/22 04:49:55;;;;;;;16.38;9.75;;;;;;;-4.21;72.19;99757.81;2623797;54;20030;-68
2021/12/22 04:52:35;;;;;;;11.27;7.30;;;;;;;-4.19;72.04;99756.00;2623408;54;20030;-68
2021/12/22 04:55:06;;;;;;;13.75;8.32;;;;;;;-4.13;72.54;99758.25;2622914;54;20538;-67
2021/12/22 04:57:36;;;;;;;12.90;7.75;;;;;;;-4.05;72.43;99756.13;2622727;54;20031;-68
2021/12/22 05:00:09;;;;;;;12.90;7.80;;;;;;;-4.02;72.29;99755.97;2623122;54;20030;-68
2021/12/22 05:02:40;;;;;;;13.73;8.82;;;;;;;-4.06;71.65;99757.03;2622126;47;20538;-69
2021/12/22 05:05:10;;;;;;;13.57;8.05;;;;;;;-4.11;71.66;99748.69;2621056;47;20546;-68
2021/12/22 05:07:43;;;;;;;16.08;8.23;;;;;;;-4.13;71.54;99750.50;2622299;54;20027;-68
2021/12/22 05:10:13;;;;;;;19.43;8.80;;;;;;;-4.10;71.70;99752.13;2621511;47;20029;-68
2021/12/22 05:12:43;;;;;;;12.57;8.27;;;;;;;-4.10;71.72;99749.53;2621449;54;20291;-68
2021/12/22 05:15:13;;;;;;;13.95;8.13;;;;;;;-4.07;72.14;99751.97;2623518;54;20038;-68
2021/12/22 05:18:12;;;;;;;12.13;8.68;;;;;;;-4.01;72.12;99756.81;2625252;54;20038;-69
2021/12/22 05:20:42;;;;;;;16.25;8.50;;;;;;;-4.01;71.92;99756.81;2625241;54;20042;-68
2021/12/22 05:23:20;;;;;;;11.43;8.20;;;;;;;-4.03;71.75;99758.66;2623788;54;20041;-68
2021/12/22 05:25:50;;;;;;;11.18;7.75;;;;;;;-4.10;71.74;99762.44;2624621;54;20032;-69
2021/12/22 05:28:19;;;;;;;15.80;9.05;;;;;;;-4.14;71.66;99756.59;2624772;54;20039;-68
2021/12/22 05:30:49;;;;;;;15.00;8.57;;;;;;;-4.19;71.74;99761.16;2624049;54;20034;-68
2021/12/22 05:33:19;;;;;;;14.27;9.35;;;;;;;-4.20;71.69;99767.25;2623300;54;20035;-68
2021/12/22 05:35:48;;;;;;;15.40;10.05;;;;;;;-4.26;71.29;99757.19;2624252;54;20050;-69
2021/12/22 05:38:21;;;;;;;17.92;9.65;;;;;;;-4.35;71.40;99757.66;2624355;54;20031;-68
2021/12/22 05:40:50;;;;;;;17.40;9.23;;;;;;;-4.43;71.68;99758.03;2623968;54;20054;-68
2021/12/22 05:43:20;;;;;;;13.82;9.73;;;;;;;-4.47;71.38;99761.66;2622951;54;20039;-68
2021/12/22 05:45:49;;;;;;;17.80;10.15;;;;;;;-4.44;71.97;99765.88;2624017;54;20078;-68
2021/12/22 05:48:23;;;;;;;19.33;10.15;;;;;;;-4.39;72.00;99767.28;2624070;54;20031;-69
2021/12/22 05:50:57;;;;;;;16.52;9.65;;;;;;;-4.27;72.01;99758.94;2623888;54;20526;-69
2021/12/22 05:53:30;;;;;;;18.35;9.52;;;;;;;-4.10;71.76;99762.44;2623504;54;20026;-69
2021/12/22 05:56:01;;;;;;;15.00;9.30;;;;;;;-4.02;71.01;99755.97;2624452;54;20082;-68
2021/12/22 05:58:31;;;;;;;15.88;9.40;;;;;;;-4.04;70.78;99751.81;2624353;54;20035;-68
2021/12/22 06:01:00;;;;;;;20.65;9.70;;;;;;;-4.20;70.56;99756.91;2625076;54;20038;-71
2021/12/22 06:03:30;;;;;;;17.38;9.65;;;;;;;-4.32;71.00;99765.25;2624864;54;20046;-68
2021/12/22 06:06:00;;;;;;;16.83;10.07;;;;;;;-4.21;71.51;99765.53;2622640;54;20030;-67
2021/12/22 06:08:32;;;;;;;15.13;9.38;;;;;;;-4.33;70.97;99761.84;2621196;54;20042;-68
2021/12/22 06:11:02;;;;;;;17.63;9.88;;;;;;;-4.43;71.02;99764.94;2621540;54;20030;-68
2021/12/22 06:13:32;;;;;;;14.40;9.38;;;;;;;-4.49;71.06;99769.50;2622649;54;20027;-68
2021/12/22 06:16:01;;;;;;;18.25;9.20;;;;;;;-4.54;71.40;99766.28;2622523;54;20029;-68
2021/12/22 06:18:31;;;;;;;15.10;9.25;;;;;;;-4.50;71.17;99775.53;2622070;54;20598;-68
2021/12/22 06:21:01;;;;;;;16.27;10.38;;;;;;;-4.56;71.57;99781.03;2622003;54;20034;-69
2021/12/22 06:23:33;;;;;;;16.58;10.32;;;;;;;-4.60;71.50;99799.31;2621942;54;20041;-66
2021/12/22 06:26:02;;;;;;;20.10;10.45;;;;;;;-4.51;71.91;99794.53;2621934;54;20035;-68
2021/12/22 06:28:32;;;;;;;20.48;10.82;;;;;;;-4.46;71.58;99793.47;2619635;54;20089;-68
2021/12/22 06:31:03;;;;;;;18.90;10.27;;;;;;;-4.46;71.46;99794.31;2621076;54;20031;-68
2021/12/22 06:33:33;;;;;;;19.58;10.40;;;;;;;-4.57;71.48;99796.59;2621512;54;20550;-67
2021/12/22 06:36:03;;;;;;;18.15;9.98;;;;;;;-4.64;71.34;99793.44;2623343;54;20030;-68
2021/12/22 06:38:35;;;;;;;20.30;9.77;;;;;;;-4.53;71.88;99798.94;2624303;54;20034;-68
2021/12/22 06:41:05;;;;;;;16.85;10.27;;;;;;;-4.42;71.91;99790.66;2623815;48;20518;-67
2021/12/22 06:43:34;;;;;;;16.40;9.48;;;;;;;-4.32;71.88;99791.91;2622317;54;20026;-67
2021/12/22 06:46:04;;;;;;;17.98;9.82;;;;;;;-4.28;71.40;99790.84;2620938;54;20111;-66
2021/12/22 06:48:34;;;;;;;16.92;10.52;;;;;;;-4.31;71.22;99805.66;2620817;47;20177;-68
2021/12/22 06:51:04;;;;;;;17.13;9.55;;;;;;;-4.41;71.11;99814.72;2620497;54;20034;-67
2021/12/22 06:53:38;;;;;;;17.50;10.00;;;;;;;-4.65;71.06;99819.34;2620771;54;20030;-67
2021/12/22 06:56:08;;;;;;;15.55;9.57;;;;;;;-4.58;71.36;99820.69;2621915;47;20035;-67
2021/12/22 06:58:38;;;;;;;17.58;9.38;;;;;;;-4.54;71.46;99815.31;2623641;47;20595;-67
2021/12/22 07:01:07;;;;;;;16.60;10.32;;;;;;;-4.46;71.44;99809.78;2624153;54;20031;-67
2021/12/22 07:03:37;;;;;;;16.60;9.95;;;;;;;-4.43;71.39;99804.50;2624275;54;20077;-68
2021/12/22 07:06:07;;;;;;;15.95;10.05;;;;;;;-4.36;71.19;99816.19;2624158;54;20022;-68
2021/12/22 07:08:39;;;;;;;20.40;10.30;;;;;;;-4.30;71.08;99812.47;2623852;54;20561;-68
2021/12/22 07:11:09;;;;;;;20.67;10.35;;;;;;;-4.45;70.75;99806.31;2623817;54;20644;-68
2021/12/22 07:13:39;;;;;;;17.88;10.95;;;;;;;-4.56;70.80;99811.16;2622472;54;20038;-68
2021/12/22 07:16:09;;;;;;;21.70;10.73;;;;;;;-4.59;71.29;99809.53;2621999;54;20038;-68
2021/12/22 07:18:38;;;;;;;19.75;11.48;;;;;;;-4.63;71.63;99812.34;2623375;54;20035;-69
2021/12/22 07:21:08;;;;;;;16.88;10.45;;;;;;;-4.68;71.25;99807.41;2622231;54;20031;-67
2021/12/22 07:23:40;;;;;;;18.73;10.77;;;;;;;-4.66;71.30;99817.63;2620154;54;20026;-68
2021/12/22 07:26:13;;;;;;;16.52;9.82;;;;;;;-4.67;71.31;99815.97;2621359;54;20031;-68
2021/12/22 07:28:45;;;;;;;15.07;9.80;;;;;;;-4.74;71.65;99812.84;2621598;54;20584;-68
2021/12/22 07:31:15;;;;;;;18.95;10.43;;;;;;;-4.65;71.64;99809.00;2621569;54;20043;-69
2021/12/22 07:33:46;;;;;;;15.82;9.45;;;;;;;-4.54;71.34;99809.31;2619857;54;20037;-67
2021/12/22 07:36:15;;;;;;;21.77;10.45;;;;;;;-4.57;71.48;99807.75;2621202;54;20045;-68
2021/12/22 07:38:53;;;;;;;16.80;10.48;;;;;;;-4.57;71.48;99810.31;2623661;54;20107;-68
2021/12/22 07:41:23;;;;;;;18.27;10.60;;;;;;;-4.55;71.38;99812.81;2625307;54;20053;-68
2021/12/22 07:43:53;;;;;;;17.23;10.50;;;;;;;-4.59;71.37;99799.22;2626263;39;20441;-67
2021/12/22 07:46:22;;;;;;;17.60;9.48;;;;;;;-4.62;71.26;99804.50;2625984;54;20546;-67
2021/12/22 07:48:52;;;;;;;20.13;11.13;;;;;;;-4.67;71.52;99797.91;2625984;54;20030;-67
2021/12/22 07:51:22;;;;;;;18.15;11.23;;;;;;;-4.60;71.16;99787.22;2625188;54;20061;-67
2021/12/22 07:53:54;;;;;;;26.73;13.57;;;;;;;-4.57;71.24;99800.00;2625424;54;20030;-69
2021/12/22 07:56:24;;;;;;;19.88;11.45;;;;;;;-4.54;71.32;99793.84;2624032;54;20034;-66
2021/12/22 07:58:54;;;;;;;23.30;12.20;;;;;;;-4.52;71.23;99795.44;2624151;54;20046;-67
2021/12/22 08:01:23;;;;;;;20.15;11.27;;;;;;;-4.54;71.08;99793.84;2623873;54;20031;-66
2021/12/22 08:03:53;;;;;;;18.58;11.45;;;;;;;-4.51;71.33;99781.63;2624531;54;20022;-67
2021/12/22 08:06:23;;;;;;;23.52;11.50;;;;;;;-4.46;71.42;99798.63;2625301;54;20022;-68
2021/12/22 08:08:56;;;;;;;23.08;12.18;;;;;;;-4.45;71.37;99798.59;2624579;54;20030;-68
2021/12/22 08:11:25;;;;;;;21.90;12.60;;;;;;;-4.41;71.65;99802.69;2624470;54;20034;-67
2021/12/22 08:13:55;;;;;;;22.25;11.80;;;;;;;-4.21;72.04;99791.38;2623444;47;20026;-66
2021/12/22 08:16:25;;;;;;;21.52;11.93;;;;;;;-4.09;71.38;99803.69;2623591;54;20038;-67
2021/12/22 08:18:54;;;;;;;22.77;13.27;;;;;;;-4.01;71.56;99803.31;2623286;54;20094;-67
2021/12/22 08:21:24;;;;;;;20.58;13.32;;;;;;;-4.01;71.46;99804.13;2623074;54;20082;-66
2021/12/22 08:23:56;;;;;;;20.23;12.63;;;;;;;-3.96;71.49;99801.34;2622925;54;20538;-67
2021/12/22 08:26:27;;;;;;;23.60;13.00;;;;;;;-3.87;71.40;99794.88;2623341;54;20055;-67
2021/12/22 08:28:56;;;;;;;20.05;11.75;;;;;;;-3.76;71.65;99800.31;2623102;54;20049;-67
2021/12/22 08:31:26;;;;;;;20.20;12.32;;;;;;;-3.61;71.50;99806.47;2622525;54;20066;-67
2021/12/22 08:33:57;;;;;;;29.75;14.45;;;;;;;-3.45;71.58;99796.19;2621215;47;20022;-67
2021/12/22 08:39:14;;;;;;;20.58;12.95;;;;;;;-3.26;71.11;99796.91;2619151;39;20391;-68
2021/12/22 08:41:47;;;;;;;26.73;15.45;;;;;;;-3.20;71.05;99803.47;2617885;54;20059;-68
2021/12/22 08:44:19;;;;;;;24.77;14.57;;;;;;;-3.11;70.84;99800.41;2618517;47;20041;-68
2021/12/22 08:46:52;;;;;;;25.52;14.80;;;;;;;-3.05;70.99;99793.16;2618719;54;20038;-68
2021/12/22 08:49:23;;;;;;;23.67;14.23;;;;;;;-2.97;70.66;99791.91;2618844;47;20102;-68
2021/12/22 08:51:53;;;;;;;22.30;13.63;;;;;;;-2.95;70.37;99784.91;2620405;54;20034;-68
2021/12/22 08:54:25;;;;;;;27.33;15.23;;;;;;;-2.85;71.17;99776.56;2622298;54;20569;-67
2021/12/22 08:56:56;;;;;;;21.90;14.18;;;;;;;-2.75;70.56;99777.72;2622671;54;20037;-67
2021/12/22 08:59:27;;;;;;;23.65;15.38;;;;;;;-2.64;70.67;99778.88;2624791;54;20038;-68
2021/12/22 09:01:57;;;;;;;22.95;13.95;;;;;;;-2.50;70.50;99773.75;2625259;47;20033;-68
2021/12/22 09:04:27;;;;;;;23.05;15.45;;;;;;;-2.38;70.45;99777.41;2625561;54;20074;-67
2021/12/22 09:06:56;;;;;;;29.15;16.25;;;;;;;-2.34;69.98;99773.72;2625946;54;20026;-68
2021/12/22 09:09:29;;;;;;;33.03;16.02;;;;;;;-2.31;70.42;99770.97;2622885;54;20035;-67
2021/12/22 09:11:58;;;;;;;26.35;16.25;;;;;;;-2.20;70.07;99776.38;2622500;54;20030;-67
2021/12/22 09:14:28;;;;;;;32.35;17.10;;;;;;;-2.14;69.74;99772.59;2622866;54;20045;-68
2021/12/22 09:16:58;;;;;;;31.23;17.90;;;;;;;-2.12;69.90;99770.75;2619700;47;20022;-68
2021/12/22 09:19:28;;;;;;;27.67;17.10;;;;;;;-2.10;69.91;99761.97;2618651;54;20126;-67
2021/12/22 09:21:58;;;;;;;27.00;16.35;;;;;;;-2.09;69.60;99763.63;2618291;54;20041;-66
2021/12/22 09:24:30;;;;;;;33.10;18.50;;;;;;;-2.11;69.67;99764.66;2618285;39;20449;-67
2021/12/22 09:27:00;;;;;;;32.75;18.20;;;;;;;-2.06;70.12;99762.63;2618618;54;20038;-67
2021/12/22 09:29:30;;;;;;;31.50;17.83;;;;;;;-1.97;70.30;99761.25;2618158;47;20022;-67
2021/12/22 09:32:00;;;;;;;28.23;17.83;;;;;;;-1.89;70.27;99775.41;2618011;47;20038;-67
2021/12/22 09:34:30;;;;;;;34.08;19.15;;;;;;;-1.75;70.48;99772.88;2618150;47;20070;-66
2021/12/22 09:37:00;;;;;;;30.02;19.50;;;;;;;-1.55;70.49;99774.28;2617938;54;20037;-65
2021/12/22 09:39:32;;;;;;;30.27;18.65;;;;;;;-1.40;70.00;99774.25;2617939;54;20080;-67
2021/12/22 09:42:02;;;;;;;25.13;17.83;;;;;;;-1.29;70.02;99764.91;2618077;54;20046;-67
2021/12/22 09:44:36;;;;;;;29.27;18.65;;;;;;;-1.23;69.95;99760.25;2618195;54;20038;-66
2021/12/22 09:47:07;;;;;;;33.58;19.23;;;;;;;-1.18;69.50;99764.25;2618248;54;20581;-66
2021/12/22 09:49:48;;;;;;;35.08;20.70;;;;;;;-1.12;69.54;99763.84;2617716;46;20035;-66
2021/12/22 09:52:19;;;;;;;30.52;17.92;;;;;;;-1.05;69.42;99754.78;2618525;54;20546;-67
2021/12/22 09:54:53;;;;;;;28.85;19.42;;;;;;;-1.01;69.39;99755.41;2618209;47;20034;-66
2021/12/22 09:57:24;;;;;;;;;;;;;;;-0.95;69.13;99757.63;2618115;47;20030;-66
2021/12/22 09:59:55;;;;;;;32.20;18.40;;;;;;;-0.91;69.45;99756.50;2618751;54;19942;-67
2021/12/22 10:02:29;;;;;;;28.63;17.88;;;;;;;-0.76;69.54;99747.75;2618458;54;20034;-67
2021/12/22 10:04:59;;;;;;;;;;;;;;;-0.64;69.42;99745.31;2618726;54;20106;-67
2021/12/22 10:07:36;;;;;;;28.05;17.80;;;;;;;-0.54;69.00;99754.16;2617765;47;19966;-67
2021/12/22 10:10:14;;;;;;;26.15;17.85;;;;;;;-0.48;68.38;99740.78;2617706;47;20034;-68
2021/12/22 10:12:46;;;;;;;31.83;22.02;;;;;;;-0.45;68.35;99732.81;2618623;54;20035;-68
2021/12/22 10:15:16;;;;;;;32.97;21.00;;;;;;;-0.41;67.95;99736.00;2617980;54;20069;-67
2021/12/22 10:17:47;;;;;;;31.80;19.67;;;;;;;-0.40;68.14;99722.94;2617668;39;20441;-67
2021/12/22 10:20:20;;;;;;;28.58;19.40;;;;;;;-0.31;68.05;99724.09;2618274;54;20174;-68
2021/12/22 10:22:52;;;;;;;25.08;17.80;;;;;;;-0.23;68.11;99723.59;2618619;54;20035;-68
2021/12/22 10:25:29;;;;;;;26.80;17.65;;;;;;;-0.18;68.02;99711.94;2618692;54;20518;-67
2021/12/22 10:28:01;;;;;;;26.52;18.27;;;;;;;-0.06;67.61;99713.72;2618212;46;20034;-68
2021/12/22 10:30:35;;;;;;;28.27;17.92;;;;;;;0.04;66.80;99708.75;2618489;47;20038;-67
2021/12/22 10:33:17;;;;;;;30.65;18.88;;;;;;;0.08;66.61;99698.97;2618649;54;20619;-68
2021/12/22 10:35:49;;;;;;;30.38;19.63;;;;;;;0.11;66.07;99698.75;2618140;54;20069;-67
2021/12/22 11:17:40;;;;;;;21.70;13.82;;;;;;;0.68;62.76;99664.44;2626086;46;20022;-72
2021/12/22 11:20:14;;;;;;;23.50;15.35;;;;;;;0.73;62.24;99658.00;2625808;54;20126;-71
2021/12/22 11:22:52;;;;;;;27.33;19.13;;;;;;;0.85;62.34;99664.06;2624776;54;20031;-71
2021/12/22 11:25:22;;;;;;;31.10;20.98;;;;;;;0.90;62.45;99661.97;2622421;47;20624;-71
2021/12/22 11:27:52;;;;;;;23.52;16.38;;;;;;;1.02;61.75;99656.81;2620783;54;20042;-72
2021/12/22 11:30:25;;;;;;;24.83;16.30;;;;;;;1.10;62.12;99654.47;2620981;54;20099;-72
2021/12/22 11:32:58;;;;;;;23.95;17.08;;;;;;;1.19;61.42;99661.66;2621404;54;20577;-72
2021/12/22 11:35:28;;;;;;;20.45;14.63;;;;;;;1.21;61.02;99655.38;2621062;54;20034;-72
2021/12/22 11:37:58;;;;;;;20.42;14.88;;;;;;;1.24;60.52;99647.34;2621125;54;20088;-71
2021/12/22 11:40:28;;;;;;;20.77;15.48;;;;;;;1.22;60.47;99651.00;2619892;54;20038;-71
2021/12/22 11:42:57;;;;;;;24.92;16.67;;;;;;;1.26;61.28;99646.38;2620438;54;20601;-71
2021/12/22 11:45:29;;;;;;;19.85;15.20;;;;;;;1.37;60.87;99646.44;2620273;54;20042;-71
2021/12/22 11:48:01;;;;;;;21.15;15.25;;;;;;;1.39;59.42;99634.97;2619896;54;20054;-71
2021/12/22 11:50:35;;;;;;;21.73;14.88;;;;;;;1.36;59.59;99635.19;2621530;54;20049;-70
2021/12/22 11:53:08;;;;;;;20.67;14.88;;;;;;;1.38;58.90;99635.06;2621697;47;20034;-71
2021/12/22 11:55:42;;;;;;;19.85;14.30;;;;;;;1.37;59.16;99629.03;2621719;54;20058;-72
2021/12/22 11:58:15;;;;;;;;;;;;;;;1.39;58.45;99627.16;2622424;54;20034;-74
2021/12/22 12:00:46;;;;;;;21.27;14.40;;;;;;;1.38;58.79;99620.25;2622396;54;19955;-72
2021/12/22 12:03:30;;;;;;;17.73;13.77;;;;;;;1.43;59.14;99619.94;2622537;47;20038;-72
2021/12/22 12:06:12;;;;;;;21.15;13.98;;;;;;;1.54;58.76;99611.31;2623936;54;20027;-72
2021/12/22 12:08:46;;;;;;;20.63;13.98;;;;;;;1.56;58.48;99612.84;2623805;54;20030;-70
2021/12/22 12:11:21;;;;;;;19.02;14.48;;;;;;;1.63;58.68;99608.84;2624238;54;20061;-72
2021/12/22 12:13:54;;;;;;;18.70;14.10;;;;;;;1.64;57.98;99615.72;2624378;54;20034;-71
2021/12/22 12:22:17;;;;;;;21.10;14.68;;;;;;;1.69;58.04;99597.13;2621248;39;20784;-66
2021/12/22 12:24:50;;;;;;;19.98;14.05;;;;;;;1.69;57.24;99586.69;2621974;54;20054;-66
2021/12/22 12:27:43;;;;;;;22.90;14.57;;;;;;;1.69;58.04;99577.09;2622049;54;20046;-67
2021/12/22 12:30:16;;;;;;;21.98;14.85;;;;;;;1.82;57.46;99583.97;2621756;54;20038;-66
2021/12/22 12:33:02;;;;;;;21.33;14.63;;;;;;;1.84;57.40;99589.91;2621867;54;20039;-71
2021/12/22 12:35:40;;;;;;;21.98;14.25;;;;;;;1.87;57.39;99584.44;2624104;54;20037;-71
2021/12/22 12:38:15;;;;;;;17.58;13.93;;;;;;;1.89;57.63;99579.97;2623187;46;20130;-71